Main page
METAR-TAF:

METAR-TAF

Airports :

Rarotonga International Airport

Rarotonga, Cook Islands

latitude: 21-12S, longitude: 159-49W, elevation: 7 m

Current weather observation

The report was made 37 minutes ago, at 12:30 UTC
Wind 6 kt from the Northeast, varying between North and East/Northeast
Temperature 26°C
Humidity 94%
Pressure 1012 hPa
Visibility 10 km or more

METAR: NCRG 031230Z AUTO 04006KT 350V070 9999 SCT013/// SCT021/// 26/25 Q1012

Time: 03:07 (13:07 UTC)

Forecast

The report was made 1 hour and 56 minutes ago, at 11:11 UTC
Forecast valid from 03 at 12 UTC to 04 at 12 UTC
Wind 9 kt from the Northeast
Visibility 10 km or more
Broken clouds at a height of 1400 ft

TAF: NCRG 031111Z 0312/0412 04009KT 9999 BKN014

Weather observations and forecasts of more than 4000 airports (METAR and TAF reports).

The available stations are represented by yellow and red dots on the map.

Hover mouse over dot to see the name of the station.

Then click to see weather observations and forecasts.

To change the map : click on the green buttons with a black cross to zoom in, on the green button with a dash to zoom out, or on the green arrows for adjacent maps.


METAR-TAF: